sensor_id;sensor_type;location;lat;lon;timestamp;P1;durP1;ratioP1;P2;durP2;ratioP2
14619;SDS011;32125;48.518;9.050;2022-09-09T00:04:40;4.67;;;1.87;;
14619;SDS011;32125;48.518;9.050;2022-09-09T00:10:04;2.67;;;1.93;;
14619;SDS011;32125;48.518;9.050;2022-09-09T00:17:38;3.67;;;2.17;;
14619;SDS011;32125;48.518;9.050;2022-09-09T00:20:12;5.07;;;2.20;;
14619;SDS011;32125;48.518;9.050;2022-09-09T00:22:46;3.30;;;1.87;;
14619;SDS011;32125;48.518;9.050;2022-09-09T00:27:59;3.17;;;1.83;;
14619;SDS011;32125;48.518;9.050;2022-09-09T00:30:30;3.10;;;2.00;;
14619;SDS011;32125;48.518;9.050;2022-09-09T00:33:01;3.77;;;1.87;;
14619;SDS011;32125;48.518;9.050;2022-09-09T00:35:37;4.23;;;1.90;;
14619;SDS011;32125;48.518;9.050;2022-09-09T00:40:45;4.40;;;2.10;;
14619;SDS011;32125;48.518;9.050;2022-09-09T00:43:24;3.00;;;1.90;;
14619;SDS011;32125;48.518;9.050;2022-09-09T00:48:59;3.23;;;1.83;;
14619;SDS011;32125;48.518;9.050;2022-09-09T00:56:30;5.07;;;1.90;;
14619;SDS011;32125;48.518;9.050;2022-09-09T01:01:48;2.63;;;1.60;;
14619;SDS011;32125;48.518;9.050;2022-09-09T01:04:19;3.23;;;1.50;;
14619;SDS011;32125;48.518;9.050;2022-09-09T01:07:04;4.20;;;1.63;;
14619;SDS011;32125;48.518;9.050;2022-09-09T01:09:59;3.33;;;1.80;;
14619;SDS011;32125;48.518;9.050;2022-09-09T01:20:47;4.90;;;1.70;;
14619;SDS011;32125;48.518;9.050;2022-09-09T01:23:36;1.70;;;1.53;;
14619;SDS011;32125;48.518;9.050;2022-09-09T01:26:25;3.63;;;1.60;;
14619;SDS011;32125;48.518;9.050;2022-09-09T01:28:52;3.97;;;1.77;;
14619;SDS011;32125;48.518;9.050;2022-09-09T01:31:19;2.90;;;1.73;;
14619;SDS011;32125;48.518;9.050;2022-09-09T01:33:53;3.50;;;1.77;;
14619;SDS011;32125;48.518;9.050;2022-09-09T01:36:27;3.27;;;1.73;;
14619;SDS011;32125;48.518;9.050;2022-09-09T01:39:02;2.03;;;1.63;;
14619;SDS011;32125;48.518;9.050;2022-09-09T01:41:29;1.90;;;1.60;;
14619;SDS011;32125;48.518;9.050;2022-09-09T01:43:55;3.27;;;1.67;;
14619;SDS011;32125;48.518;9.050;2022-09-09T01:46:23;3.63;;;1.60;;
14619;SDS011;32125;48.518;9.050;2022-09-09T01:48:50;2.93;;;1.57;;
14619;SDS011;32125;48.518;9.050;2022-09-09T01:51:18;2.37;;;1.63;;
14619;SDS011;32125;48.518;9.050;2022-09-09T01:53:46;6.40;;;1.70;;
14619;SDS011;32125;48.518;9.050;2022-09-09T01:58:51;3.67;;;1.70;;
14619;SDS011;32125;48.518;9.050;2022-09-09T02:04:18;2.70;;;1.77;;
14619;SDS011;32125;48.518;9.050;2022-09-09T02:06:55;4.13;;;1.70;;
14619;SDS011;32125;48.518;9.050;2022-09-09T02:09:23;5.33;;;1.90;;
14619;SDS011;32125;48.518;9.050;2022-09-09T02:11:55;2.27;;;1.73;;
14619;SDS011;32125;48.518;9.050;2022-09-09T02:14:30;3.03;;;1.67;;
14619;SDS011;32125;48.518;9.050;2022-09-09T02:17:02;2.30;;;1.70;;
14619;SDS011;32125;48.518;9.050;2022-09-09T02:19:34;4.13;;;1.90;;
14619;SDS011;32125;48.518;9.050;2022-09-09T02:22:08;4.40;;;1.80;;
14619;SDS011;32125;48.518;9.050;2022-09-09T02:24:36;3.30;;;1.70;;
14619;SDS011;32125;48.518;9.050;2022-09-09T02:27:03;4.10;;;1.90;;
14619;SDS011;32125;48.518;9.050;2022-09-09T02:29:33;2.70;;;1.73;;
14619;SDS011;32125;48.518;9.050;2022-09-09T02:32:02;6.30;;;1.97;;
14619;SDS011;32125;48.518;9.050;2022-09-09T02:34:33;4.13;;;1.77;;
14619;SDS011;32125;48.518;9.050;2022-09-09T02:37:04;2.60;;;1.80;;
14619;SDS011;32125;48.518;9.050;2022-09-09T02:39:33;3.33;;;1.83;;
14619;SDS011;32125;48.518;9.050;2022-09-09T02:41:59;3.97;;;1.70;;
14619;SDS011;32125;48.518;9.050;2022-09-09T02:44:25;3.23;;;1.93;;
14619;SDS011;32125;48.518;9.050;2022-09-09T02:49:40;2.37;;;1.70;;
14619;SDS011;32125;48.518;9.050;2022-09-09T02:55:24;3.13;;;1.80;;
14619;SDS011;32125;48.518;9.050;2022-09-09T02:57:56;3.67;;;2.00;;
14619;SDS011;32125;48.518;9.050;2022-09-09T03:00:27;4.60;;;2.10;;
14619;SDS011;32125;48.518;9.050;2022-09-09T03:02:54;3.00;;;1.73;;
14619;SDS011;32125;48.518;9.050;2022-09-09T03:05:20;3.10;;;2.20;;
14619;SDS011;32125;48.518;9.050;2022-09-09T03:07:47;3.70;;;2.00;;
14619;SDS011;32125;48.518;9.050;2022-09-09T03:10:14;4.63;;;1.90;;
14619;SDS011;32125;48.518;9.050;2022-09-09T03:12:40;2.23;;;1.57;;
14619;SDS011;32125;48.518;9.050;2022-09-09T03:15:07;4.50;;;2.07;;
14619;SDS011;32125;48.518;9.050;2022-09-09T03:17:34;6.23;;;1.80;;
14619;SDS011;32125;48.518;9.050;2022-09-09T03:20:02;3.10;;;1.83;;
14619;SDS011;32125;48.518;9.050;2022-09-09T03:22:34;2.60;;;2.00;;
14619;SDS011;32125;48.518;9.050;2022-09-09T03:25:00;4.77;;;1.70;;
14619;SDS011;32125;48.518;9.050;2022-09-09T03:27:27;3.30;;;2.10;;
14619;SDS011;32125;48.518;9.050;2022-09-09T03:29:57;3.30;;;1.77;;
14619;SDS011;32125;48.518;9.050;2022-09-09T03:32:25;5.13;;;2.03;;
14619;SDS011;32125;48.518;9.050;2022-09-09T03:34:53;3.57;;;2.10;;
14619;SDS011;32125;48.518;9.050;2022-09-09T03:37:21;3.77;;;1.97;;
14619;SDS011;32125;48.518;9.050;2022-09-09T03:39:49;2.73;;;1.77;;
14619;SDS011;32125;48.518;9.050;2022-09-09T03:42:19;2.63;;;1.90;;
14619;SDS011;32125;48.518;9.050;2022-09-09T03:44:46;3.57;;;1.90;;
14619;SDS011;32125;48.518;9.050;2022-09-09T03:47:18;5.20;;;1.73;;
14619;SDS011;32125;48.518;9.050;2022-09-09T03:49:44;4.27;;;1.93;;
14619;SDS011;32125;48.518;9.050;2022-09-09T03:52:11;3.33;;;1.87;;
14619;SDS011;32125;48.518;9.050;2022-09-09T03:54:37;3.17;;;2.10;;
14619;SDS011;32125;48.518;9.050;2022-09-09T03:57:06;3.57;;;1.90;;
14619;SDS011;32125;48.518;9.050;2022-09-09T03:59:32;8.17;;;2.20;;
14619;SDS011;32125;48.518;9.050;2022-09-09T04:02:01;4.90;;;1.90;;
14619;SDS011;32125;48.518;9.050;2022-09-09T04:04:27;3.30;;;2.07;;
14619;SDS011;32125;48.518;9.050;2022-09-09T04:06:53;3.40;;;1.60;;
14619;SDS011;32125;48.518;9.050;2022-09-09T04:09:19;3.37;;;1.60;;
14619;SDS011;32125;48.518;9.050;2022-09-09T04:11:45;6.70;;;2.10;;
14619;SDS011;32125;48.518;9.050;2022-09-09T04:14:11;3.53;;;1.80;;
14619;SDS011;32125;48.518;9.050;2022-09-09T04:16:40;2.53;;;1.50;;
14619;SDS011;32125;48.518;9.050;2022-09-09T04:19:09;4.70;;;2.00;;
14619;SDS011;32125;48.518;9.050;2022-09-09T04:21:37;4.43;;;1.70;;
14619;SDS011;32125;48.518;9.050;2022-09-09T04:24:04;3.43;;;1.60;;
14619;SDS011;32125;48.518;9.050;2022-09-09T04:26:30;6.10;;;2.07;;
14619;SDS011;32125;48.518;9.050;2022-09-09T04:28:57;3.57;;;1.73;;
14619;SDS011;32125;48.518;9.050;2022-09-09T04:31:23;4.27;;;1.70;;
14619;SDS011;32125;48.518;9.050;2022-09-09T04:33:49;1.77;;;1.50;;
14619;SDS011;32125;48.518;9.050;2022-09-09T04:36:18;4.23;;;2.00;;
14619;SDS011;32125;48.518;9.050;2022-09-09T04:38:44;2.10;;;1.50;;
14619;SDS011;32125;48.518;9.050;2022-09-09T04:41:10;2.77;;;1.70;;
14619;SDS011;32125;48.518;9.050;2022-09-09T04:43:37;4.33;;;1.87;;
14619;SDS011;32125;48.518;9.050;2022-09-09T04:46:04;2.60;;;1.50;;
14619;SDS011;32125;48.518;9.050;2022-09-09T04:48:30;2.70;;;1.63;;
14619;SDS011;32125;48.518;9.050;2022-09-09T04:51:03;3.13;;;1.77;;
14619;SDS011;32125;48.518;9.050;2022-09-09T04:53:30;3.30;;;1.70;;
14619;SDS011;32125;48.518;9.050;2022-09-09T04:58:29;6.37;;;2.07;;
14619;SDS011;32125;48.518;9.050;2022-09-09T05:01:02;5.27;;;2.37;;
14619;SDS011;32125;48.518;9.050;2022-09-09T05:03:30;3.57;;;1.80;;
14619;SDS011;32125;48.518;9.050;2022-09-09T05:06:04;3.63;;;1.93;;
14619;SDS011;32125;48.518;9.050;2022-09-09T05:08:30;3.77;;;2.30;;
14619;SDS011;32125;48.518;9.050;2022-09-09T05:10:56;11.90;;;2.67;;
14619;SDS011;32125;48.518;9.050;2022-09-09T05:13:26;4.33;;;1.90;;
14619;SDS011;32125;48.518;9.050;2022-09-09T05:15:53;4.70;;;2.47;;
14619;SDS011;32125;48.518;9.050;2022-09-09T05:18:19;3.70;;;2.30;;
14619;SDS011;32125;48.518;9.050;2022-09-09T05:20:47;2.77;;;1.73;;
14619;SDS011;32125;48.518;9.050;2022-09-09T05:23:13;4.80;;;2.07;;
14619;SDS011;32125;48.518;9.050;2022-09-09T05:25:41;2.73;;;1.77;;
14619;SDS011;32125;48.518;9.050;2022-09-09T05:28:08;3.47;;;1.90;;
14619;SDS011;32125;48.518;9.050;2022-09-09T05:30:36;5.07;;;1.90;;
14619;SDS011;32125;48.518;9.050;2022-09-09T05:33:02;2.17;;;1.87;;
14619;SDS011;32125;48.518;9.050;2022-09-09T05:35:28;7.63;;;3.37;;
14619;SDS011;32125;48.518;9.050;2022-09-09T05:37:58;2.77;;;1.80;;
14619;SDS011;32125;48.518;9.050;2022-09-09T05:40:26;2.30;;;1.70;;
14619;SDS011;32125;48.518;9.050;2022-09-09T05:42:52;2.13;;;1.53;;
14619;SDS011;32125;48.518;9.050;2022-09-09T05:45:18;3.57;;;1.80;;
14619;SDS011;32125;48.518;9.050;2022-09-09T05:47:51;3.83;;;1.70;;
14619;SDS011;32125;48.518;9.050;2022-09-09T05:50:20;2.10;;;1.37;;
14619;SDS011;32125;48.518;9.050;2022-09-09T05:52:46;3.40;;;1.70;;
14619;SDS011;32125;48.518;9.050;2022-09-09T05:55:17;5.33;;;1.67;;
14619;SDS011;32125;48.518;9.050;2022-09-09T05:57:47;4.63;;;1.70;;
14619;SDS011;32125;48.518;9.050;2022-09-09T06:00:13;2.30;;;1.60;;
14619;SDS011;32125;48.518;9.050;2022-09-09T06:02:42;3.37;;;1.70;;
14619;SDS011;32125;48.518;9.050;2022-09-09T06:05:08;6.37;;;2.07;;
14619;SDS011;32125;48.518;9.050;2022-09-09T06:07:40;2.70;;;1.80;;
14619;SDS011;32125;48.518;9.050;2022-09-09T06:10:07;4.00;;;1.80;;
14619;SDS011;32125;48.518;9.050;2022-09-09T06:12:33;3.17;;;1.80;;
14619;SDS011;32125;48.518;9.050;2022-09-09T06:15:00;3.60;;;1.87;;
14619;SDS011;32125;48.518;9.050;2022-09-09T06:17:28;3.77;;;1.50;;
14619;SDS011;32125;48.518;9.050;2022-09-09T06:19:56;5.10;;;1.57;;
14619;SDS011;32125;48.518;9.050;2022-09-09T06:22:23;4.57;;;1.50;;
14619;SDS011;32125;48.518;9.050;2022-09-09T06:24:49;3.77;;;1.60;;
14619;SDS011;32125;48.518;9.050;2022-09-09T06:27:16;4.57;;;1.60;;
14619;SDS011;32125;48.518;9.050;2022-09-09T06:29:42;3.47;;;1.40;;
14619;SDS011;32125;48.518;9.050;2022-09-09T06:32:08;2.33;;;1.40;;
14619;SDS011;32125;48.518;9.050;2022-09-09T06:34:36;3.87;;;1.40;;
14619;SDS011;32125;48.518;9.050;2022-09-09T06:37:02;3.70;;;1.67;;
14619;SDS011;32125;48.518;9.050;2022-09-09T06:39:29;3.60;;;1.47;;
14619;SDS011;32125;48.518;9.050;2022-09-09T06:41:55;4.70;;;1.70;;
14619;SDS011;32125;48.518;9.050;2022-09-09T06:44:23;5.17;;;1.70;;
14619;SDS011;32125;48.518;9.050;2022-09-09T06:46:51;3.63;;;1.33;;
14619;SDS011;32125;48.518;9.050;2022-09-09T06:49:17;6.23;;;1.50;;
14619;SDS011;32125;48.518;9.050;2022-09-09T06:51:44;5.67;;;1.80;;
14619;SDS011;32125;48.518;9.050;2022-09-09T06:54:11;3.63;;;1.60;;
14619;SDS011;32125;48.518;9.050;2022-09-09T06:56:40;5.60;;;1.50;;
14619;SDS011;32125;48.518;9.050;2022-09-09T06:59:10;3.23;;;1.57;;
14619;SDS011;32125;48.518;9.050;2022-09-09T07:01:41;2.83;;;1.53;;
14619;SDS011;32125;48.518;9.050;2022-09-09T07:04:08;4.67;;;1.70;;
14619;SDS011;32125;48.518;9.050;2022-09-09T07:06:39;3.97;;;1.57;;
14619;SDS011;32125;48.518;9.050;2022-09-09T07:09:08;3.53;;;1.57;;
14619;SDS011;32125;48.518;9.050;2022-09-09T07:11:38;4.17;;;1.40;;
14619;SDS011;32125;48.518;9.050;2022-09-09T07:14:08;6.23;;;1.60;;
14619;SDS011;32125;48.518;9.050;2022-09-09T07:16:37;2.87;;;1.47;;
14619;SDS011;32125;48.518;9.050;2022-09-09T07:19:04;3.30;;;1.27;;
14619;SDS011;32125;48.518;9.050;2022-09-09T07:21:33;2.57;;;1.40;;
14619;SDS011;32125;48.518;9.050;2022-09-09T07:24:10;3.37;;;1.40;;
14619;SDS011;32125;48.518;9.050;2022-09-09T07:26:38;2.77;;;1.47;;
14619;SDS011;32125;48.518;9.050;2022-09-09T07:29:05;3.53;;;1.20;;
14619;SDS011;32125;48.518;9.050;2022-09-09T07:31:32;2.50;;;1.30;;
14619;SDS011;32125;48.518;9.050;2022-09-09T07:34:01;2.63;;;1.40;;
14619;SDS011;32125;48.518;9.050;2022-09-09T07:36:32;2.10;;;1.10;;
14619;SDS011;32125;48.518;9.050;2022-09-09T07:39:01;2.25;;;1.30;;
14619;SDS011;32125;48.518;9.050;2022-09-09T07:41:30;2.08;;;1.15;;
14619;SDS011;32125;48.518;9.050;2022-09-09T07:43:59;1.77;;;1.05;;
14619;SDS011;32125;48.518;9.050;2022-09-09T07:46:27;1.38;;;1.02;;
14619;SDS011;32125;48.518;9.050;2022-09-09T07:48:54;3.13;;;1.50;;
14619;SDS011;32125;48.518;9.050;2022-09-09T07:51:25;2.15;;;1.10;;
14619;SDS011;32125;48.518;9.050;2022-09-09T07:53:54;5.78;;;1.52;;
14619;SDS011;32125;48.518;9.050;2022-09-09T07:56:23;2.38;;;1.10;;
14619;SDS011;32125;48.518;9.050;2022-09-09T07:58:55;1.98;;;1.27;;
14619;SDS011;32125;48.518;9.050;2022-09-09T08:03:56;2.42;;;1.23;;
14619;SDS011;32125;48.518;9.050;2022-09-09T08:06:30;4.38;;;1.17;;
14619;SDS011;32125;48.518;9.050;2022-09-09T08:08:58;1.92;;;1.20;;
14619;SDS011;32125;48.518;9.050;2022-09-09T08:11:24;4.35;;;1.58;;
14619;SDS011;32125;48.518;9.050;2022-09-09T08:13:51;2.95;;;1.15;;
14619;SDS011;32125;48.518;9.050;2022-09-09T08:16:18;2.38;;;1.08;;
14619;SDS011;32125;48.518;9.050;2022-09-09T08:18:47;2.17;;;1.30;;
14619;SDS011;32125;48.518;9.050;2022-09-09T08:21:26;1.55;;;1.10;;
14619;SDS011;32125;48.518;9.050;2022-09-09T08:23:56;3.90;;;1.10;;
14619;SDS011;32125;48.518;9.050;2022-09-09T08:26:24;3.38;;;1.17;;
14619;SDS011;32125;48.518;9.050;2022-09-09T08:28:51;3.55;;;1.17;;
14619;SDS011;32125;48.518;9.050;2022-09-09T08:31:21;2.92;;;1.10;;
14619;SDS011;32125;48.518;9.050;2022-09-09T08:33:53;2.30;;;1.10;;
14619;SDS011;32125;48.518;9.050;2022-09-09T08:36:20;3.03;;;1.10;;
14619;SDS011;32125;48.518;9.050;2022-09-09T08:38:50;3.42;;;1.10;;
14619;SDS011;32125;48.518;9.050;2022-09-09T08:43:43;5.63;;;1.20;;
14619;SDS011;32125;48.518;9.050;2022-09-09T08:46:15;2.60;;;1.00;;
14619;SDS011;32125;48.518;9.050;2022-09-09T08:49:10;3.35;;;1.10;;
14619;SDS011;32125;48.518;9.050;2022-09-09T08:51:43;3.40;;;1.02;;
14619;SDS011;32125;48.518;9.050;2022-09-09T08:54:09;3.80;;;0.98;;
14619;SDS011;32125;48.518;9.050;2022-09-09T08:56:37;3.75;;;1.25;;
14619;SDS011;32125;48.518;9.050;2022-09-09T08:59:04;4.03;;;1.10;;
14619;SDS011;32125;48.518;9.050;2022-09-09T09:09:18;2.42;;;0.90;;
14619;SDS011;32125;48.518;9.050;2022-09-09T09:11:54;4.85;;;1.05;;
14619;SDS011;32125;48.518;9.050;2022-09-09T09:14:25;3.50;;;1.10;;
14619;SDS011;32125;48.518;9.050;2022-09-09T09:17:27;2.63;;;0.95;;
14619;SDS011;32125;48.518;9.050;2022-09-09T09:19:47;1.88;;;0.80;;
14619;SDS011;32125;48.518;9.050;2022-09-09T09:22:20;1.48;;;0.85;;
14619;SDS011;32125;48.518;9.050;2022-09-09T09:30:54;1.40;;;0.70;;
14619;SDS011;32125;48.518;9.050;2022-09-09T09:35:52;9.65;;;1.38;;
14619;SDS011;32125;48.518;9.050;2022-09-09T09:38:28;3.40;;;1.00;;
14619;SDS011;32125;48.518;9.050;2022-09-09T09:40:55;4.53;;;1.00;;
14619;SDS011;32125;48.518;9.050;2022-09-09T09:43:34;3.03;;;0.90;;
14619;SDS011;32125;48.518;9.050;2022-09-09T09:46:03;2.92;;;0.90;;
14619;SDS011;32125;48.518;9.050;2022-09-09T09:48:29;2.30;;;0.63;;
14619;SDS011;32125;48.518;9.050;2022-09-09T09:51:01;1.17;;;0.90;;
14619;SDS011;32125;48.518;9.050;2022-09-09T09:53:32;2.03;;;0.90;;
14619;SDS011;32125;48.518;9.050;2022-09-09T09:56:00;1.02;;;0.60;;
14619;SDS011;32125;48.518;9.050;2022-09-09T09:58:47;1.65;;;0.82;;
14619;SDS011;32125;48.518;9.050;2022-09-09T10:01:28;2.28;;;0.95;;
14619;SDS011;32125;48.518;9.050;2022-09-09T10:04:00;1.77;;;0.80;;
14619;SDS011;32125;48.518;9.050;2022-09-09T10:06:35;2.70;;;0.75;;
14619;SDS011;32125;48.518;9.050;2022-09-09T10:09:04;3.83;;;0.90;;
14619;SDS011;32125;48.518;9.050;2022-09-09T10:11:52;0.88;;;0.60;;
14619;SDS011;32125;48.518;9.050;2022-09-09T10:14:57;3.35;;;0.90;;
14619;SDS011;32125;48.518;9.050;2022-09-09T10:19:39;1.02;;;0.82;;
14619;SDS011;32125;48.518;9.050;2022-09-09T10:22:17;1.25;;;0.70;;
14619;SDS011;32125;48.518;9.050;2022-09-09T10:33:16;2.50;;;0.77;;
14619;SDS011;32125;48.518;9.050;2022-09-09T10:35:52;2.25;;;0.80;;
14619;SDS011;32125;48.518;9.050;2022-09-09T10:38:28;1.92;;;0.70;;
14619;SDS011;32125;48.518;9.050;2022-09-09T10:41:11;1.52;;;0.77;;
14619;SDS011;32125;48.518;9.050;2022-09-09T10:52:26;3.13;;;0.77;;
14619;SDS011;32125;48.518;9.050;2022-09-09T10:59:54;3.13;;;0.70;;
14619;SDS011;32125;48.518;9.050;2022-09-09T11:07:29;3.17;;;0.98;;
14619;SDS011;32125;48.518;9.050;2022-09-09T11:10:02;3.25;;;0.82;;
14619;SDS011;32125;48.518;9.050;2022-09-09T11:12:34;2.55;;;0.68;;
14619;SDS011;32125;48.518;9.050;2022-09-09T11:15:06;3.42;;;1.05;;
14619;SDS011;32125;48.518;9.050;2022-09-09T11:17:40;3.40;;;1.00;;
14619;SDS011;32125;48.518;9.050;2022-09-09T11:20:12;5.28;;;1.08;;
14619;SDS011;32125;48.518;9.050;2022-09-09T11:25:14;1.50;;;0.50;;
14619;SDS011;32125;48.518;9.050;2022-09-09T11:40:25;1.13;;;0.45;;
14619;SDS011;32125;48.518;9.050;2022-09-09T11:43:03;0.73;;;0.38;;
14619;SDS011;32125;48.518;9.050;2022-09-09T11:45:31;0.85;;;0.40;;
14619;SDS011;32125;48.518;9.050;2022-09-09T11:47:59;1.15;;;0.50;;
14619;SDS011;32125;48.518;9.050;2022-09-09T11:55:34;1.70;;;0.60;;
14619;SDS011;32125;48.518;9.050;2022-09-09T12:00:38;1.15;;;0.50;;
14619;SDS011;32125;48.518;9.050;2022-09-09T12:03:05;1.65;;;0.60;;
14619;SDS011;32125;48.518;9.050;2022-09-09T12:05:40;1.65;;;0.60;;
14619;SDS011;32125;48.518;9.050;2022-09-09T12:08:15;0.80;;;0.57;;
14619;SDS011;32125;48.518;9.050;2022-09-09T12:10:57;1.05;;;0.50;;
14619;SDS011;32125;48.518;9.050;2022-09-09T12:13:25;0.95;;;0.47;;
14619;SDS011;32125;48.518;9.050;2022-09-09T12:18:22;1.52;;;0.50;;
14619;SDS011;32125;48.518;9.050;2022-09-09T12:20:52;1.88;;;0.60;;
14619;SDS011;32125;48.518;9.050;2022-09-09T12:34:19;1.17;;;0.60;;
14619;SDS011;32125;48.518;9.050;2022-09-09T12:37:06;3.50;;;0.70;;
14619;SDS011;32125;48.518;9.050;2022-09-09T12:39:51;2.50;;;0.90;;
14619;SDS011;32125;48.518;9.050;2022-09-09T12:42:19;1.30;;;0.60;;
14619;SDS011;32125;48.518;9.050;2022-09-09T12:44:56;1.50;;;0.60;;
14619;SDS011;32125;48.518;9.050;2022-09-09T12:49:59;1.60;;;0.60;;
14619;SDS011;32125;48.518;9.050;2022-09-09T12:52:27;3.05;;;0.55;;
14619;SDS011;32125;48.518;9.050;2022-09-09T12:54:56;2.55;;;0.60;;
14619;SDS011;32125;48.518;9.050;2022-09-09T12:57:25;1.30;;;0.52;;
14619;SDS011;32125;48.518;9.050;2022-09-09T12:59:52;2.60;;;0.65;;
14619;SDS011;32125;48.518;9.050;2022-09-09T13:04:44;2.28;;;0.50;;
14619;SDS011;32125;48.518;9.050;2022-09-09T13:07:11;2.33;;;0.68;;
14619;SDS011;32125;48.518;9.050;2022-09-09T13:09:38;1.27;;;0.60;;
14619;SDS011;32125;48.518;9.050;2022-09-09T13:12:05;1.30;;;0.60;;
14619;SDS011;32125;48.518;9.050;2022-09-09T13:14:38;1.35;;;0.82;;
14619;SDS011;32125;48.518;9.050;2022-09-09T13:17:04;1.52;;;0.68;;
14619;SDS011;32125;48.518;9.050;2022-09-09T13:19:33;2.10;;;0.70;;
14619;SDS011;32125;48.518;9.050;2022-09-09T13:22:10;1.92;;;0.80;;
14619;SDS011;32125;48.518;9.050;2022-09-09T13:24:38;3.60;;;0.50;;
14619;SDS011;32125;48.518;9.050;2022-09-09T13:30:21;2.80;;;0.70;;
14619;SDS011;32125;48.518;9.050;2022-09-09T13:33:38;1.92;;;0.70;;
14619;SDS011;32125;48.518;9.050;2022-09-09T13:35:49;2.47;;;0.60;;
14619;SDS011;32125;48.518;9.050;2022-09-09T13:38:18;1.48;;;0.60;;
14619;SDS011;32125;48.518;9.050;2022-09-09T13:43:48;1.73;;;0.60;;
14619;SDS011;32125;48.518;9.050;2022-09-09T13:49:19;2.38;;;0.60;;
14619;SDS011;32125;48.518;9.050;2022-09-09T13:51:48;1.63;;;0.50;;
14619;SDS011;32125;48.518;9.050;2022-09-09T13:54:15;1.45;;;0.60;;
14619;SDS011;32125;48.518;9.050;2022-09-09T13:56:43;2.20;;;0.70;;
14619;SDS011;32125;48.518;9.050;2022-09-09T13:59:13;2.90;;;0.55;;
14619;SDS011;32125;48.518;9.050;2022-09-09T14:01:41;1.75;;;0.30;;
14619;SDS011;32125;48.518;9.050;2022-09-09T14:04:09;1.13;;;0.50;;
14619;SDS011;32125;48.518;9.050;2022-09-09T14:06:35;2.38;;;0.65;;
14619;SDS011;32125;48.518;9.050;2022-09-09T14:09:05;1.17;;;0.47;;
14619;SDS011;32125;48.518;9.050;2022-09-09T14:11:31;2.75;;;0.60;;
14619;SDS011;32125;48.518;9.050;2022-09-09T14:13:59;2.33;;;0.60;;
14619;SDS011;32125;48.518;9.050;2022-09-09T14:16:25;1.25;;;0.60;;
14619;SDS011;32125;48.518;9.050;2022-09-09T14:18:52;1.88;;;0.50;;
14619;SDS011;32125;48.518;9.050;2022-09-09T14:21:18;1.98;;;0.60;;
14619;SDS011;32125;48.518;9.050;2022-09-09T14:23:45;3.72;;;0.60;;
14619;SDS011;32125;48.518;9.050;2022-09-09T14:26:11;0.85;;;0.57;;
14619;SDS011;32125;48.518;9.050;2022-09-09T14:28:38;2.05;;;0.70;;
14619;SDS011;32125;48.518;9.050;2022-09-09T14:31:05;1.98;;;0.40;;
14619;SDS011;32125;48.518;9.050;2022-09-09T14:33:34;1.40;;;0.50;;
14619;SDS011;32125;48.518;9.050;2022-09-09T14:36:01;1.35;;;0.43;;
14619;SDS011;32125;48.518;9.050;2022-09-09T14:38:30;2.17;;;0.70;;
14619;SDS011;32125;48.518;9.050;2022-09-09T14:40:58;1.00;;;0.45;;
14619;SDS011;32125;48.518;9.050;2022-09-09T14:43:24;2.13;;;0.60;;
14619;SDS011;32125;48.518;9.050;2022-09-09T14:45:52;2.65;;;0.70;;
14619;SDS011;32125;48.518;9.050;2022-09-09T14:48:18;2.15;;;0.60;;
14619;SDS011;32125;48.518;9.050;2022-09-09T14:50:44;2.70;;;0.70;;
14619;SDS011;32125;48.518;9.050;2022-09-09T14:53:10;2.67;;;0.50;;
14619;SDS011;32125;48.518;9.050;2022-09-09T14:55:37;1.05;;;0.60;;
14619;SDS011;32125;48.518;9.050;2022-09-09T14:58:03;1.23;;;0.82;;
14619;SDS011;32125;48.518;9.050;2022-09-09T15:00:31;1.27;;;0.60;;
14619;SDS011;32125;48.518;9.050;2022-09-09T15:02:57;1.85;;;0.55;;
14619;SDS011;32125;48.518;9.050;2022-09-09T15:05:25;1.23;;;0.50;;
14619;SDS011;32125;48.518;9.050;2022-09-09T15:07:53;1.10;;;0.40;;
14619;SDS011;32125;48.518;9.050;2022-09-09T15:10:34;1.05;;;0.50;;
14619;SDS011;32125;48.518;9.050;2022-09-09T15:13:00;2.05;;;0.60;;
14619;SDS011;32125;48.518;9.050;2022-09-09T15:18:18;1.15;;;0.45;;
14619;SDS011;32125;48.518;9.050;2022-09-09T15:20:47;2.67;;;0.65;;
14619;SDS011;32125;48.518;9.050;2022-09-09T15:25:56;3.38;;;1.65;;
14619;SDS011;32125;48.518;9.050;2022-09-09T15:28:22;1.67;;;0.60;;
14619;SDS011;32125;48.518;9.050;2022-09-09T15:30:48;3.15;;;0.60;;
14619;SDS011;32125;48.518;9.050;2022-09-09T15:33:17;2.08;;;0.57;;
14619;SDS011;32125;48.518;9.050;2022-09-09T15:35:43;1.95;;;0.60;;
14619;SDS011;32125;48.518;9.050;2022-09-09T15:38:09;2.10;;;1.50;;
14619;SDS011;32125;48.518;9.050;2022-09-09T15:40:38;1.80;;;0.60;;
14619;SDS011;32125;48.518;9.050;2022-09-09T15:43:06;1.67;;;0.50;;
14619;SDS011;32125;48.518;9.050;2022-09-09T15:45:34;1.40;;;0.43;;
14619;SDS011;32125;48.518;9.050;2022-09-09T15:48:01;2.28;;;0.40;;
14619;SDS011;32125;48.518;9.050;2022-09-09T15:50:27;0.55;;;0.32;;
14619;SDS011;32125;48.518;9.050;2022-09-09T15:52:57;0.47;;;0.40;;
14619;SDS011;32125;48.518;9.050;2022-09-09T15:55:23;0.70;;;0.40;;
14619;SDS011;32125;48.518;9.050;2022-09-09T15:57:52;0.98;;;0.30;;
14619;SDS011;32125;48.518;9.050;2022-09-09T16:00:19;0.90;;;0.50;;
14619;SDS011;32125;48.518;9.050;2022-09-09T16:02:46;0.85;;;0.40;;
14619;SDS011;32125;48.518;9.050;2022-09-09T16:05:12;1.85;;;0.75;;
14619;SDS011;32125;48.518;9.050;2022-09-09T16:07:38;2.40;;;0.35;;
14619;SDS011;32125;48.518;9.050;2022-09-09T16:10:07;1.15;;;0.40;;
14619;SDS011;32125;48.518;9.050;2022-09-09T16:12:33;1.27;;;0.50;;
14619;SDS011;32125;48.518;9.050;2022-09-09T16:15:00;1.25;;;0.50;;
14619;SDS011;32125;48.518;9.050;2022-09-09T16:17:26;0.50;;;0.40;;
14619;SDS011;32125;48.518;9.050;2022-09-09T16:19:54;2.80;;;0.80;;
14619;SDS011;32125;48.518;9.050;2022-09-09T16:22:22;1.67;;;0.40;;
14619;SDS011;32125;48.518;9.050;2022-09-09T16:24:49;1.67;;;0.55;;
14619;SDS011;32125;48.518;9.050;2022-09-09T16:27:16;2.28;;;0.57;;
14619;SDS011;32125;48.518;9.050;2022-09-09T16:29:44;2.05;;;0.55;;
14619;SDS011;32125;48.518;9.050;2022-09-09T16:32:10;1.55;;;0.57;;
14619;SDS011;32125;48.518;9.050;2022-09-09T16:34:36;1.50;;;0.50;;
14619;SDS011;32125;48.518;9.050;2022-09-09T16:37:05;1.25;;;0.60;;
14619;SDS011;32125;48.518;9.050;2022-09-09T16:39:31;1.23;;;0.60;;
14619;SDS011;32125;48.518;9.050;2022-09-09T16:41:57;0.88;;;0.50;;
14619;SDS011;32125;48.518;9.050;2022-09-09T16:44:23;1.65;;;0.60;;
14619;SDS011;32125;48.518;9.050;2022-09-09T16:46:51;1.27;;;0.57;;
14619;SDS011;32125;48.518;9.050;2022-09-09T16:49:20;0.73;;;0.60;;
14619;SDS011;32125;48.518;9.050;2022-09-09T16:51:48;1.33;;;0.60;;
14619;SDS011;32125;48.518;9.050;2022-09-09T16:54:15;2.50;;;0.60;;
14619;SDS011;32125;48.518;9.050;2022-09-09T16:56:42;1.85;;;0.60;;
14619;SDS011;32125;48.518;9.050;2022-09-09T16:59:10;2.05;;;0.73;;
14619;SDS011;32125;48.518;9.050;2022-09-09T17:01:38;0.60;;;0.60;;
14619;SDS011;32125;48.518;9.050;2022-09-09T17:04:09;1.15;;;0.80;;
14619;SDS011;32125;48.518;9.050;2022-09-09T17:06:35;1.75;;;0.90;;
14619;SDS011;32125;48.518;9.050;2022-09-09T17:09:04;1.48;;;0.77;;
14619;SDS011;32125;48.518;9.050;2022-09-09T17:11:34;2.15;;;0.77;;
14619;SDS011;32125;48.518;9.050;2022-09-09T17:14:01;1.70;;;0.70;;
14619;SDS011;32125;48.518;9.050;2022-09-09T17:16:29;1.65;;;0.90;;
14619;SDS011;32125;48.518;9.050;2022-09-09T17:18:58;1.08;;;0.65;;
14619;SDS011;32125;48.518;9.050;2022-09-09T17:21:25;2.40;;;0.88;;
14619;SDS011;32125;48.518;9.050;2022-09-09T17:23:51;1.60;;;0.80;;
14619;SDS011;32125;48.518;9.050;2022-09-09T17:26:18;1.95;;;0.70;;
14619;SDS011;32125;48.518;9.050;2022-09-09T17:28:44;0.93;;;0.80;;
14619;SDS011;32125;48.518;9.050;2022-09-09T17:31:11;2.33;;;0.82;;
14619;SDS011;32125;48.518;9.050;2022-09-09T17:33:39;4.20;;;0.90;;
14619;SDS011;32125;48.518;9.050;2022-09-09T17:38:37;2.10;;;0.80;;
14619;SDS011;32125;48.518;9.050;2022-09-09T17:41:04;2.17;;;0.80;;